Time,TemperatureF,DewpointF,PressureIn,WindDirection,WindDirectionDegrees,WindSpeedMPH,WindSpeedGustMPH,Humidity,HourlyPrecipIn,Conditions,Clouds,dailyrainin,SoftwareType,DateUTC
2013-05-26 00:02:00,56.1,45.3,30.19,North,0,7.6,11.4,67,0.00,,,0.00,meteobridge,2013-05-26 05:02:00,
2013-05-26 00:08:00,56.1,45.0,30.19,NW,315,8.3,13.6,66,0.00,,,0.00,meteobridge,2013-05-26 05:08:00,
2013-05-26 00:13:00,56.1,45.0,30.19,NW,315,12.1,13.6,66,0.00,,,0.00,meteobridge,2013-05-26 05:13:00,
2013-05-26 00:19:00,56.1,45.0,30.18,NW,315,10.7,10.7,66,0.00,,,0.00,meteobridge,2013-05-26 05:19:00,
2013-05-26 00:25:00,56.1,45.0,30.18,NW,315,10.7,14.5,66,0.00,,,0.00,meteobridge,2013-05-26 05:25:00,
2013-05-26 00:30:00,56.1,45.0,30.17,NW,315,14.5,15.9,66,0.00,,,0.00,meteobridge,2013-05-26 05:30:00,
2013-05-26 00:36:00,56.1,45.0,30.17,NW,315,13.6,16.8,66,0.00,,,0.00,meteobridge,2013-05-26 05:36:00,
2013-05-26 00:42:00,56.1,44.6,30.17,NW,315,13.6,14.5,65,0.00,,,0.00,meteobridge,2013-05-26 05:42:00,
2013-05-26 00:47:00,55.9,44.4,30.17,NNW,338,11.4,15.9,65,0.00,,,0.00,meteobridge,2013-05-26 05:47:00,
2013-05-26 00:53:00,55.9,44.4,30.17,NW,315,12.1,14.5,65,0.00,,,0.00,meteobridge,2013-05-26 05:53:00,
2013-05-26 00:58:00,55.8,44.2,30.16,NW,315,13.0,13.6,65,0.00,,,0.00,meteobridge,2013-05-26 05:58:00,
2013-05-26 01:04:00,55.8,44.2,30.16,NW,315,13.0,13.0,65,0.00,,,0.00,meteobridge,2013-05-26 06:04:00,
2013-05-26 01:10:00,55.6,44.4,30.16,NW,315,14.5,14.5,66,0.00,,,0.00,meteobridge,2013-05-26 06:10:00,
2013-05-26 01:15:00,55.4,44.2,30.16,NW,315,9.2,9.2,66,0.00,,,0.00,meteobridge,2013-05-26 06:15:00,
2013-05-26 01:21:00,55.4,44.2,30.16,NW,315,13.0,13.0,66,0.00,,,0.00,meteobridge,2013-05-26 06:21:00,
2013-05-26 01:27:00,55.4,44.2,30.18,North,0,10.7,12.1,66,0.00,,,0.00,meteobridge,2013-05-26 06:27:00,
2013-05-26 01:32:00,55.2,44.1,30.18,WNW,293,9.2,11.4,66,0.00,,,0.00,meteobridge,2013-05-26 06:32:00,
2013-05-26 01:38:00,55.2,44.1,30.17,NW,315,9.8,10.7,66,0.00,,,0.00,meteobridge,2013-05-26 06:38:00,
2013-05-26 01:44:00,55.0,44.2,30.17,NW,315,7.6,7.6,67,0.00,,,0.00,meteobridge,2013-05-26 06:44:00,
2013-05-26 01:49:00,55.0,44.2,30.17,NW,315,8.3,8.3,67,0.00,,,0.00,meteobridge,2013-05-26 06:49:00,
2013-05-26 01:55:00,55.0,44.2,30.17,WNW,293,6.0,9.2,67,0.00,,,0.00,meteobridge,2013-05-26 06:55:00,
2013-05-26 02:01:00,54.9,44.4,30.16,NW,315,7.6,7.6,68,0.00,,,0.00,meteobridge,2013-05-26 07:01:00,
2013-05-26 02:06:00,54.9,44.4,30.16,NW,315,4.5,8.3,68,0.00,,,0.00,meteobridge,2013-05-26 07:06:00,
2013-05-26 02:12:00,54.9,44.4,30.16,NW,315,6.9,9.2,68,0.00,,,0.00,meteobridge,2013-05-26 07:12:00,
2013-05-26 02:17:00,54.9,44.4,30.16,NW,315,5.4,7.6,68,0.00,,,0.00,meteobridge,2013-05-26 07:17:00,
2013-05-26 02:23:00,54.9,44.4,30.16,NNW,338,8.3,8.3,68,0.00,,,0.00,meteobridge,2013-05-26 07:23:00,
2013-05-26 02:29:00,55.0,44.2,30.16,NW,315,14.5,15.9,67,0.00,,,0.00,meteobridge,2013-05-26 07:29:00,
2013-05-26 02:34:00,55.2,44.1,30.16,NW,315,18.3,18.3,66,0.00,,,0.00,meteobridge,2013-05-26 07:34:00,
2013-05-26 02:40:00,55.2,43.7,30.16,NW,315,12.1,12.1,65,0.00,,,0.00,meteobridge,2013-05-26 07:40:00,
2013-05-26 02:46:00,55.0,43.5,30.16,NW,315,8.3,8.3,65,0.00,,,0.00,meteobridge,2013-05-26 07:46:00,
2013-05-26 02:51:00,55.0,43.5,30.15,West,270,9.2,12.1,65,0.00,,,0.00,meteobridge,2013-05-26 07:51:00,
2013-05-26 02:57:00,54.9,43.0,30.15,NW,315,9.8,11.4,64,0.00,,,0.00,meteobridge,2013-05-26 07:57:00,
2013-05-26 03:03:00,54.7,42.8,30.14,NW,315,13.0,13.6,64,0.00,,,0.00,meteobridge,2013-05-26 08:03:00,
2013-05-26 03:08:00,54.7,42.8,30.14,NW,315,10.7,13.0,64,0.00,,,0.00,meteobridge,2013-05-26 08:08:00,
2013-05-26 03:14:00,54.3,42.1,30.13,NW,315,13.0,15.2,63,0.00,,,0.00,meteobridge,2013-05-26 08:14:00,
2013-05-26 03:19:00,54.1,42.3,30.13,NW,315,9.2,9.8,64,0.00,,,0.00,meteobridge,2013-05-26 08:19:00,
2013-05-26 03:25:00,54.0,42.1,30.14,NW,315,12.1,13.0,64,0.00,,,0.00,meteobridge,2013-05-26 08:25:00,
2013-05-26 03:31:00,54.0,42.1,30.13,NW,315,15.9,16.8,64,0.00,,,0.00,meteobridge,2013-05-26 08:31:00,
2013-05-26 03:36:00,53.8,41.9,30.13,WNW,293,12.1,14.5,64,0.00,,,0.00,meteobridge,2013-05-26 08:36:00,
2013-05-26 03:42:00,53.8,41.9,30.13,NE,45,11.4,13.6,64,0.00,,,0.00,meteobridge,2013-05-26 08:42:00,
2013-05-26 03:48:00,53.8,41.9,30.13,NW,315,15.9,15.9,64,0.00,,,0.00,meteobridge,2013-05-26 08:48:00,
2013-05-26 03:53:00,53.6,41.7,30.14,NW,315,9.8,10.7,64,0.00,,,0.00,meteobridge,2013-05-26 08:53:00,
2013-05-26 03:59:00,53.4,41.9,30.13,NW,315,12.1,13.6,65,0.00,,,0.00,meteobridge,2013-05-26 08:59:00,
2013-05-26 04:05:00,53.2,41.7,30.14,NW,315,12.1,12.1,65,0.00,,,0.00,meteobridge,2013-05-26 09:05:00,
2013-05-26 04:10:00,53.1,41.5,30.14,NW,315,6.0,7.6,65,0.00,,,0.00,meteobridge,2013-05-26 09:10:00,
2013-05-26 04:16:00,52.9,41.9,30.14,NNW,338,7.6,7.6,66,0.00,,,0.00,meteobridge,2013-05-26 09:16:00,
2013-05-26 04:21:00,52.9,41.9,30.14,North,0,6.9,9.8,66,0.00,,,0.00,meteobridge,2013-05-26 09:21:00,
2013-05-26 04:27:00,52.9,41.9,30.14,NW,315,9.8,10.7,66,0.00,,,0.00,meteobridge,2013-05-26 09:27:00,
2013-05-26 04:33:00,53.1,41.5,30.15,NW,315,8.3,10.7,65,0.00,,,0.00,meteobridge,2013-05-26 09:33:00,
2013-05-26 04:38:00,52.9,41.4,30.16,North,0,13.0,13.0,65,0.00,,,0.00,meteobridge,2013-05-26 09:38:00,
2013-05-26 04:44:00,53.4,41.5,30.17,North,0,10.7,13.0,64,0.00,,,0.00,meteobridge,2013-05-26 09:44:00,
2013-05-26 04:50:00,53.4,41.5,30.17,North,0,10.7,10.7,64,0.00,,,0.00,meteobridge,2013-05-26 09:50:00,
2013-05-26 04:55:00,53.2,41.4,30.18,NW,315,7.6,9.8,64,0.00,,,0.00,meteobridge,2013-05-26 09:55:00,
2013-05-26 05:01:00,53.2,41.4,30.18,North,0,13.0,13.0,64,0.00,,,0.00,meteobridge,2013-05-26 10:01:00,
2013-05-26 05:07:00,53.2,41.4,30.19,NW,315,6.9,6.9,64,0.00,,,0.00,meteobridge,2013-05-26 10:07:00,
2013-05-26 05:12:00,53.4,41.5,30.19,NW,315,6.9,6.9,64,0.00,,,0.00,meteobridge,2013-05-26 10:12:00,
2013-05-26 05:18:00,53.2,41.4,30.19,NW,315,8.3,8.3,64,0.00,,,0.00,meteobridge,2013-05-26 10:18:00,
2013-05-26 05:24:00,53.2,41.4,30.18,NW,315,6.9,7.6,64,0.00,,,0.00,meteobridge,2013-05-26 10:24:00,
2013-05-26 05:29:00,53.2,41.4,30.18,NW,315,6.0,7.6,64,0.00,,,0.00,meteobridge,2013-05-26 10:29:00,
2013-05-26 05:35:00,53.2,41.4,30.18,NW,315,7.6,7.6,64,0.00,,,0.00,meteobridge,2013-05-26 10:35:00,
2013-05-26 05:40:00,53.2,41.4,30.18,NW,315,7.6,7.6,64,0.00,,,0.00,meteobridge,2013-05-26 10:40:00,
2013-05-26 05:45:00,53.1,41.2,30.18,NW,315,9.8,9.8,64,0.00,,,0.00,meteobridge,2013-05-26 10:45:00,
2013-05-26 05:51:00,53.1,41.2,30.17,West,270,6.9,7.6,64,0.00,,,0.00,meteobridge,2013-05-26 10:51:00,
2013-05-26 05:56:00,53.1,41.2,30.16,West,270,4.5,10.7,64,0.00,,,0.00,meteobridge,2013-05-26 10:56:00,
2013-05-26 06:02:00,53.1,40.8,30.17,West,270,8.3,8.3,63,0.00,,,0.00,meteobridge,2013-05-26 11:02:00,
2013-05-26 06:07:00,53.1,40.8,30.17,NW,315,6.9,6.9,63,0.00,,,0.00,meteobridge,2013-05-26 11:07:00,
2013-05-26 06:13:00,53.1,40.8,30.17,West,270,9.8,9.8,63,0.00,,,0.00,meteobridge,2013-05-26 11:13:00,
2013-05-26 06:19:00,53.2,40.6,30.17,NW,315,7.6,9.8,62,0.00,,,0.00,meteobridge,2013-05-26 11:19:00,
2013-05-26 06:24:00,53.4,40.6,30.18,NW,315,6.9,7.6,62,0.00,,,0.00,meteobridge,2013-05-26 11:24:00,
2013-05-26 06:30:00,53.2,40.6,30.17,NW,315,8.3,8.3,62,0.00,,,0.00,meteobridge,2013-05-26 11:30:00,
2013-05-26 06:36:00,53.4,40.6,30.17,WNW,293,6.9,9.8,62,0.00,,,0.00,meteobridge,2013-05-26 11:36:00,
2013-05-26 06:41:00,53.2,40.6,30.16,NW,315,7.6,7.6,62,0.00,,,0.00,meteobridge,2013-05-26 11:41:00,
2013-05-26 06:47:00,53.2,41.0,30.16,West,270,9.8,9.8,63,0.00,,,0.00,meteobridge,2013-05-26 11:47:00,
2013-05-26 06:53:00,53.2,41.0,30.16,NW,315,7.6,9.2,63,0.00,,,0.00,meteobridge,2013-05-26 11:53:00,
2013-05-26 06:58:00,53.4,41.2,30.16,NW,315,9.8,13.6,63,0.00,,,0.00,meteobridge,2013-05-26 11:58:00,
2013-05-26 07:04:00,53.4,41.2,30.16,SW,225,9.2,9.2,63,0.00,,,0.00,meteobridge,2013-05-26 12:04:00,
2013-05-26 07:09:00,53.6,40.5,30.16,West,270,12.1,12.1,61,0.00,,,0.00,meteobridge,2013-05-26 12:09:00,
2013-05-26 07:15:00,53.6,40.8,30.17,NW,315,6.9,7.6,62,0.00,,,0.00,meteobridge,2013-05-26 12:15:00,
2013-05-26 07:21:00,53.6,40.8,30.17,NW,315,11.4,11.4,62,0.00,,,0.00,meteobridge,2013-05-26 12:21:00,
2013-05-26 07:26:00,53.8,40.6,30.17,NW,315,10.7,10.7,61,0.00,,,0.00,meteobridge,2013-05-26 12:26:00,
2013-05-26 07:32:00,53.8,40.6,30.16,West,270,13.6,13.6,61,0.00,,,0.00,meteobridge,2013-05-26 12:32:00,
2013-05-26 07:38:00,53.8,40.6,30.16,NW,315,8.3,11.4,61,0.00,,,0.00,meteobridge,2013-05-26 12:38:00,
2013-05-26 07:43:00,53.8,40.6,30.17,NW,315,10.7,10.7,61,0.00,,,0.00,meteobridge,2013-05-26 12:43:00,
2013-05-26 07:49:00,53.8,41.0,30.17,NW,315,10.7,10.7,62,0.00,,,0.00,meteobridge,2013-05-26 12:49:00,
2013-05-26 07:55:00,53.6,40.8,30.17,NW,315,10.7,10.7,62,0.00,,,0.00,meteobridge,2013-05-26 12:55:00,
2013-05-26 08:00:00,53.8,41.0,30.17,NW,315,6.0,6.0,62,0.00,,,0.00,meteobridge,2013-05-26 13:00:00,
2013-05-26 08:06:00,53.8,41.0,30.17,NW,315,6.9,6.9,62,0.00,,,0.00,meteobridge,2013-05-26 13:06:00,
2013-05-26 08:12:00,53.8,41.0,30.17,NW,315,13.0,13.0,62,0.00,,,0.00,meteobridge,2013-05-26 13:12:00,
2013-05-26 08:17:00,53.8,40.6,30.17,SW,225,8.3,12.1,61,0.00,,,0.00,meteobridge,2013-05-26 13:17:00,
2013-05-26 08:23:00,54.0,40.8,30.17,West,270,10.7,13.6,61,0.00,,,0.00,meteobridge,2013-05-26 13:23:00,
2013-05-26 08:28:00,54.0,40.8,30.17,West,270,8.3,12.1,61,0.00,,,0.00,meteobridge,2013-05-26 13:28:00,
2013-05-26 08:34:00,54.0,40.8,30.16,NW,315,14.5,14.5,61,0.00,,,0.00,meteobridge,2013-05-26 13:34:00,
2013-05-26 08:40:00,54.1,41.0,30.16,West,270,16.8,16.8,61,0.00,,,0.00,meteobridge,2013-05-26 13:40:00,
2013-05-26 08:45:00,54.3,41.2,30.16,WNW,293,13.0,13.6,61,0.00,,,0.00,meteobridge,2013-05-26 13:45:00,
2013-05-26 08:51:00,54.5,41.4,30.15,NW,315,13.6,16.8,61,0.00,,,0.00,meteobridge,2013-05-26 13:51:00,
2013-05-26 08:57:00,54.7,41.5,30.15,West,270,15.9,15.9,61,0.00,,,0.00,meteobridge,2013-05-26 13:57:00,
2013-05-26 09:02:00,54.9,41.7,30.14,NW,315,13.6,14.5,61,0.00,,,0.00,meteobridge,2013-05-26 14:02:00,
2013-05-26 09:08:00,55.0,41.4,30.14,NW,315,15.9,18.3,60,0.00,,,0.00,meteobridge,2013-05-26 14:08:00,
2013-05-26 09:14:00,55.0,41.0,30.14,NW,315,17.4,17.4,59,0.00,,,0.00,meteobridge,2013-05-26 14:14:00,
2013-05-26 09:19:00,55.2,41.2,30.14,NW,315,13.6,13.6,59,0.00,,,0.00,meteobridge,2013-05-26 14:19:00,
2013-05-26 09:25:00,55.4,40.5,30.14,NW,315,15.9,16.8,57,0.00,,,0.00,meteobridge,2013-05-26 14:25:00,
2013-05-26 09:30:00,55.6,40.1,30.14,WSW,248,18.3,19.7,56,0.00,,,0.00,meteobridge,2013-05-26 14:30:00,
2013-05-26 09:36:00,55.8,40.8,30.14,SW,225,17.4,17.4,57,0.00,,,0.00,meteobridge,2013-05-26 14:36:00,
2013-05-26 09:42:00,55.8,40.3,30.14,NW,315,14.5,14.5,56,0.00,,,0.00,meteobridge,2013-05-26 14:42:00,
2013-05-26 09:47:00,55.8,39.9,30.14,West,270,13.0,16.8,55,0.00,,,0.00,meteobridge,2013-05-26 14:47:00,
2013-05-26 09:53:00,55.8,39.4,30.14,West,270,13.0,24.4,54,0.00,,,0.00,meteobridge,2013-05-26 14:53:00,
2013-05-26 09:59:00,55.8,39.9,30.14,West,270,13.0,15.9,55,0.00,,,0.00,meteobridge,2013-05-26 14:59:00,
2013-05-26 10:04:00,55.8,39.9,30.14,NW,315,15.2,16.8,55,0.00,,,0.00,meteobridge,2013-05-26 15:04:00,
2013-05-26 10:10:00,56.1,40.1,30.14,NW,315,13.6,13.6,55,0.00,,,0.00,meteobridge,2013-05-26 15:10:00,
2013-05-26 10:16:00,56.3,40.3,30.13,WNW,293,13.0,22.1,55,0.00,,,0.00,meteobridge,2013-05-26 15:16:00,
2013-05-26 10:21:00,56.8,40.8,30.13,NW,315,15.2,15.2,55,0.00,,,0.00,meteobridge,2013-05-26 15:21:00,
2013-05-26 10:27:00,57.0,41.0,30.13,WNW,293,13.0,19.0,55,0.00,,,0.00,meteobridge,2013-05-26 15:27:00,
2013-05-26 10:32:00,57.0,40.5,30.13,NW,315,19.0,19.0,54,0.00,,,0.00,meteobridge,2013-05-26 15:32:00,
2013-05-26 10:38:00,57.0,40.1,30.13,NW,315,16.8,21.3,53,0.00,,,0.00,meteobridge,2013-05-26 15:38:00,
2013-05-26 10:44:00,56.8,39.4,30.14,NW,315,16.8,19.0,52,0.00,,,0.00,meteobridge,2013-05-26 15:44:00,
2013-05-26 10:49:00,56.8,39.9,30.14,NW,315,9.8,17.4,53,0.00,,,0.00,meteobridge,2013-05-26 15:49:00,
2013-05-26 10:55:00,57.0,40.5,30.14,North,0,13.6,15.2,54,0.00,,,0.00,meteobridge,2013-05-26 15:55:00,
2013-05-26 11:01:00,57.2,39.7,30.14,NW,315,12.1,12.1,52,0.00,,,0.00,meteobridge,2013-05-26 16:01:00,
2013-05-26 11:06:00,57.4,38.3,30.14,NW,315,13.6,20.6,49,0.00,,,0.00,meteobridge,2013-05-26 16:06:00,
2013-05-26 11:12:00,57.7,38.7,30.14,NNW,338,11.4,14.5,49,0.00,,,0.00,meteobridge,2013-05-26 16:12:00,
2013-05-26 11:18:00,57.9,37.2,30.13,North,0,23.5,23.5,46,0.00,,,0.00,meteobridge,2013-05-26 16:18:00,
2013-05-26 11:23:00,58.5,37.8,30.14,NW,315,20.6,25.9,46,0.00,,,0.00,meteobridge,2013-05-26 16:23:00,
2013-05-26 11:29:00,59.0,38.3,30.14,NW,315,15.2,16.8,46,0.00,,,0.00,meteobridge,2013-05-26 16:29:00,
2013-05-26 11:35:00,59.2,38.5,30.14,NW,315,17.4,17.4,46,0.00,,,0.00,meteobridge,2013-05-26 16:35:00,
2013-05-26 11:40:00,59.7,38.3,30.14,WNW,293,15.9,19.0,45,0.00,,,0.00,meteobridge,2013-05-26 16:40:00,
2013-05-26 11:46:00,59.0,36.5,30.15,NW,315,25.1,25.1,43,0.00,,,0.00,meteobridge,2013-05-26 16:46:00,
2013-05-26 11:51:00,58.5,37.2,30.15,NW,315,15.9,20.6,45,0.00,,,0.00,meteobridge,2013-05-26 16:51:00,
2013-05-26 11:57:00,58.6,38.5,30.16,North,0,11.4,15.9,47,0.00,,,0.00,meteobridge,2013-05-26 16:57:00,
2013-05-26 12:03:00,58.6,38.5,30.16,NW,315,11.4,13.6,47,0.00,,,0.00,meteobridge,2013-05-26 17:03:00,
2013-05-26 12:08:00,58.5,37.2,30.15,North,0,23.5,23.5,45,0.00,,,0.00,meteobridge,2013-05-26 17:08:00,
2013-05-26 12:14:00,58.3,37.0,30.15,NW,315,19.7,22.1,45,0.00,,,0.00,meteobridge,2013-05-26 17:14:00,
2013-05-26 12:20:00,58.3,37.0,30.15,NW,315,19.0,21.3,45,0.00,,,0.00,meteobridge,2013-05-26 17:20:00,
2013-05-26 12:25:00,58.1,36.9,30.15,NW,315,15.2,19.0,45,0.00,,,0.00,meteobridge,2013-05-26 17:25:00,
2013-05-26 12:31:00,58.1,37.4,30.15,North,0,19.7,19.7,46,0.00,,,0.00,meteobridge,2013-05-26 17:31:00,
2013-05-26 12:37:00,57.9,37.2,30.15,North,0,15.9,21.3,46,0.00,,,0.00,meteobridge,2013-05-26 17:37:00,
2013-05-26 12:42:00,57.9,37.2,30.15,NW,315,17.4,17.4,46,0.00,,,0.00,meteobridge,2013-05-26 17:42:00,
2013-05-26 12:48:00,57.7,37.6,30.15,NW,315,13.0,16.8,47,0.00,,,0.00,meteobridge,2013-05-26 17:48:00,
2013-05-26 12:53:00,57.7,37.6,30.15,NW,315,14.5,20.6,47,0.00,,,0.00,meteobridge,2013-05-26 17:53:00,
2013-05-26 12:59:00,57.7,37.6,30.15,NW,315,16.8,19.0,47,0.00,,,0.00,meteobridge,2013-05-26 17:59:00,
2013-05-26 13:05:00,57.6,37.9,30.15,West,270,15.9,15.9,48,0.00,,,0.00,meteobridge,2013-05-26 18:05:00,
2013-05-26 13:10:00,57.7,38.7,30.15,NW,315,16.8,16.8,49,0.00,,,0.00,meteobridge,2013-05-26 18:10:00,
2013-05-26 13:16:00,57.7,38.1,30.15,NW,315,16.8,18.3,48,0.00,,,0.00,meteobridge,2013-05-26 18:16:00,
2013-05-26 13:22:00,57.4,38.3,30.14,NW,315,21.3,22.1,49,0.00,,,0.00,meteobridge,2013-05-26 18:22:00,
2013-05-26 13:27:00,57.4,38.8,30.14,NW,315,12.1,14.5,50,0.00,,,0.00,meteobridge,2013-05-26 18:27:00,
2013-05-26 13:33:00,57.6,39.0,30.13,NW,315,16.8,17.4,50,0.00,,,0.00,meteobridge,2013-05-26 18:33:00,
2013-05-26 13:39:00,57.7,40.3,30.13,NNW,338,24.4,24.4,52,0.00,,,0.00,meteobridge,2013-05-26 18:39:00,
2013-05-26 13:44:00,57.6,41.5,30.13,West,270,18.3,18.3,55,0.00,,,0.00,meteobridge,2013-05-26 18:44:00,
2013-05-26 13:50:00,57.0,41.5,30.12,NW,315,28.2,28.2,56,0.00,,,0.00,meteobridge,2013-05-26 18:50:00,
2013-05-26 13:56:00,57.2,41.7,30.12,NW,315,21.3,24.4,56,0.00,,,0.00,meteobridge,2013-05-26 18:56:00,
2013-05-26 14:01:00,57.7,42.1,30.12,NW,315,23.5,25.9,56,0.00,,,0.00,meteobridge,2013-05-26 19:01:00,
2013-05-26 14:07:00,57.9,42.3,30.12,North,0,25.9,25.9,56,0.00,,,0.00,meteobridge,2013-05-26 19:07:00,
2013-05-26 14:12:00,58.1,42.1,30.12,NW,315,22.1,25.1,55,0.00,,,0.00,meteobridge,2013-05-26 19:12:00,
2013-05-26 14:18:00,58.1,42.1,30.11,NW,315,19.0,20.6,55,0.00,,,0.00,meteobridge,2013-05-26 19:18:00,
2013-05-26 14:24:00,58.1,41.5,30.10,NW,315,22.8,22.8,54,0.00,,,0.00,meteobridge,2013-05-26 19:24:00,
2013-05-26 14:29:00,58.3,41.7,30.11,NW,315,24.4,24.4,54,0.00,,,0.00,meteobridge,2013-05-26 19:29:00,
2013-05-26 14:35:00,57.7,41.2,30.11,NW,315,24.4,26.6,54,0.00,,,0.00,meteobridge,2013-05-26 19:35:00,
2013-05-26 14:41:00,57.7,41.2,30.10,NW,315,20.6,20.6,54,0.00,,,0.00,meteobridge,2013-05-26 19:41:00,
2013-05-26 14:46:00,57.7,40.3,30.10,NW,315,20.6,25.1,52,0.00,,,0.00,meteobridge,2013-05-26 19:46:00,
2013-05-26 14:52:00,57.6,40.6,30.10,NW,315,28.9,28.9,53,0.00,,,0.00,meteobridge,2013-05-26 19:52:00,
2013-05-26 14:58:00,57.4,40.8,30.10,NW,315,20.6,22.1,54,0.00,,,0.00,meteobridge,2013-05-26 19:58:00,
2013-05-26 15:03:00,57.2,40.6,30.09,NW,315,14.5,18.3,54,0.00,,,0.00,meteobridge,2013-05-26 20:03:00,
2013-05-26 15:09:00,57.0,41.5,30.09,NW,315,22.1,22.1,56,0.00,,,0.00,meteobridge,2013-05-26 20:09:00,
2013-05-26 15:14:00,56.8,41.4,30.09,NW,315,27.3,27.3,56,0.00,,,0.00,meteobridge,2013-05-26 20:14:00,
2013-05-26 15:20:00,56.7,41.2,30.09,NW,315,18.3,18.3,56,0.00,,,0.00,meteobridge,2013-05-26 20:20:00,
2013-05-26 15:26:00,56.7,41.5,30.09,WNW,293,18.3,26.6,57,0.00,,,0.00,meteobridge,2013-05-26 20:26:00,
2013-05-26 15:31:00,56.5,41.4,30.09,NW,315,19.7,25.1,57,0.00,,,0.00,meteobridge,2013-05-26 20:31:00,
2013-05-26 15:37:00,56.7,41.5,30.09,NW,315,21.3,25.1,57,0.00,,,0.00,meteobridge,2013-05-26 20:37:00,
2013-05-26 15:43:00,56.7,41.5,30.09,SE,135,17.4,19.0,57,0.00,,,0.00,meteobridge,2013-05-26 20:43:00,
2013-05-26 15:48:00,57.0,41.9,30.09,NW,315,16.8,16.8,57,0.00,,,0.00,meteobridge,2013-05-26 20:48:00,
2013-05-26 15:54:00,57.2,42.1,30.09,NW,315,14.5,15.9,57,0.00,,,0.00,meteobridge,2013-05-26 20:54:00,
2013-05-26 16:00:00,57.2,42.1,30.10,NW,315,13.6,13.6,57,0.00,,,0.00,meteobridge,2013-05-26 21:00:00,
2013-05-26 16:05:00,57.2,42.1,30.10,NW,315,13.6,13.6,57,0.00,,,0.00,meteobridge,2013-05-26 21:05:00,
2013-05-26 16:11:00,57.2,41.7,30.09,NW,315,13.6,15.9,56,0.00,,,0.00,meteobridge,2013-05-26 21:11:00,
2013-05-26 16:16:00,57.2,41.7,30.09,North,0,10.7,15.9,56,0.00,,,0.00,meteobridge,2013-05-26 21:16:00,
2013-05-26 16:22:00,57.2,42.1,30.09,West,270,15.9,15.9,57,0.00,,,0.00,meteobridge,2013-05-26 21:22:00,
2013-05-26 16:28:00,57.2,41.7,30.09,WNW,293,10.7,16.8,56,0.00,,,0.00,meteobridge,2013-05-26 21:28:00,
2013-05-26 16:33:00,57.2,41.7,30.09,NW,315,15.9,18.3,56,0.00,,,0.00,meteobridge,2013-05-26 21:33:00,
2013-05-26 16:39:00,57.4,41.9,30.09,WSW,248,13.6,14.5,56,0.00,,,0.00,meteobridge,2013-05-26 21:39:00,
2013-05-26 16:45:00,57.6,41.9,30.09,WNW,293,14.5,18.3,56,0.00,,,0.00,meteobridge,2013-05-26 21:45:00,
2013-05-26 16:50:00,57.7,42.1,30.09,NW,315,9.2,12.1,56,0.00,,,0.00,meteobridge,2013-05-26 21:50:00,
2013-05-26 16:56:00,57.9,42.3,30.09,NW,315,15.9,15.9,56,0.00,,,0.00,meteobridge,2013-05-26 21:56:00,
2013-05-26 17:02:00,57.7,42.6,30.09,NW,315,14.5,16.8,57,0.00,,,0.00,meteobridge,2013-05-26 22:02:00,
2013-05-26 17:07:00,57.7,43.0,30.08,NW,315,11.4,13.6,58,0.00,,,0.00,meteobridge,2013-05-26 22:07:00,
2013-05-26 17:13:00,57.9,43.2,30.08,West,270,14.5,16.8,58,0.00,,,0.00,meteobridge,2013-05-26 22:13:00,
2013-05-26 17:19:00,57.9,43.7,30.09,NW,315,13.0,14.5,59,0.00,,,0.00,meteobridge,2013-05-26 22:19:00,
2013-05-26 17:24:00,57.9,44.1,30.08,SW,225,13.0,15.2,60,0.00,,,0.00,meteobridge,2013-05-26 22:24:00,
2013-05-26 17:30:00,58.1,44.8,30.08,West,270,14.5,14.5,61,0.00,,,0.00,meteobridge,2013-05-26 22:30:00,
2013-05-26 17:35:00,58.5,45.5,30.07,NW,315,15.2,15.2,62,0.00,,,0.00,meteobridge,2013-05-26 22:35:00,
2013-05-26 17:41:00,58.5,46.4,30.07,West,270,13.0,20.6,64,0.00,,,0.00,meteobridge,2013-05-26 22:41:00,
2013-05-26 17:47:00,58.6,45.7,30.07,West,270,14.5,15.2,62,0.00,,,0.00,meteobridge,2013-05-26 22:47:00,
2013-05-26 17:52:00,58.8,45.3,30.07,NW,315,13.0,14.5,61,0.00,,,0.00,meteobridge,2013-05-26 22:52:00,
2013-05-26 17:58:00,58.8,45.0,30.07,NW,315,12.1,13.0,60,0.00,,,0.00,meteobridge,2013-05-26 22:58:00,
2013-05-26 18:04:00,58.8,45.3,30.07,WNW,293,13.6,14.5,61,0.00,,,0.00,meteobridge,2013-05-26 23:04:00,
2013-05-26 18:09:00,59.0,45.1,30.06,NW,315,12.1,12.1,60,0.00,,,0.00,meteobridge,2013-05-26 23:09:00,
2013-05-26 18:15:00,58.8,45.3,30.07,West,270,10.7,16.8,61,0.00,,,0.00,meteobridge,2013-05-26 23:15:00,
2013-05-26 18:21:00,59.0,45.5,30.07,NW,315,12.1,12.1,61,0.00,,,0.00,meteobridge,2013-05-26 23:21:00,
2013-05-26 18:26:00,58.8,46.2,30.07,NW,315,8.3,10.7,63,0.00,,,0.00,meteobridge,2013-05-26 23:26:00,
2013-05-26 18:32:00,58.6,46.0,30.08,NW,315,14.5,17.4,63,0.00,,,0.00,meteobridge,2013-05-26 23:32:00,
2013-05-26 18:37:00,58.5,46.4,30.08,NW,315,12.1,12.1,64,0.00,,,0.00,meteobridge,2013-05-26 23:37:00,
2013-05-26 18:43:00,58.6,46.6,30.08,NW,315,11.4,15.2,64,0.00,,,0.00,meteobridge,2013-05-26 23:43:00,
2013-05-26 18:49:00,58.5,46.4,30.09,WNW,293,18.3,18.3,64,0.00,,,0.00,meteobridge,2013-05-26 23:49:00,
2013-05-26 18:54:00,58.3,46.2,30.09,North,0,7.6,11.4,64,0.00,,,0.00,meteobridge,2013-05-26 23:54:00,
2013-05-26 19:00:00,58.3,46.2,30.09,NW,315,14.5,14.5,64,0.00,,,0.00,meteobridge,2013-05-27 00:00:00,
2013-05-26 19:06:00,58.5,46.8,30.09,NW,315,15.2,15.2,65,0.00,,,0.00,meteobridge,2013-05-27 00:06:00,
2013-05-26 19:11:00,58.6,46.9,30.09,NW,315,19.0,19.0,65,0.00,,,0.00,meteobridge,2013-05-27 00:11:00,
2013-05-26 19:17:00,58.6,46.9,30.09,NW,315,13.6,15.9,65,0.00,,,0.00,meteobridge,2013-05-27 00:17:00,
2013-05-26 19:23:00,58.6,46.9,30.09,NW,315,11.4,15.2,65,0.00,,,0.00,meteobridge,2013-05-27 00:23:00,
2013-05-26 19:28:00,58.6,46.6,30.09,NW,315,14.5,16.8,64,0.00,,,0.00,meteobridge,2013-05-27 00:28:00,
2013-05-26 19:34:00,58.8,46.6,30.09,NW,315,11.4,11.4,64,0.00,,,0.00,meteobridge,2013-05-27 00:34:00,
2013-05-26 19:39:00,58.8,46.6,30.09,NW,315,9.8,13.6,64,0.00,,,0.00,meteobridge,2013-05-27 00:39:00,
2013-05-26 19:45:00,58.8,46.6,30.09,NW,315,12.1,14.5,64,0.00,,,0.00,meteobridge,2013-05-27 00:45:00,
2013-05-26 19:51:00,58.8,46.6,30.09,NW,315,9.2,10.7,64,0.00,,,0.00,meteobridge,2013-05-27 00:51:00,
2013-05-26 19:56:00,58.8,46.6,30.09,NW,315,15.2,15.2,64,0.00,,,0.00,meteobridge,2013-05-27 00:56:00,
2013-05-26 20:02:00,58.6,46.6,30.09,WNW,293,15.2,15.2,64,0.00,,,0.00,meteobridge,2013-05-27 01:02:00,
2013-05-26 20:08:00,58.6,46.6,30.09,NW,315,13.0,15.2,64,0.00,,,0.00,meteobridge,2013-05-27 01:08:00,
2013-05-26 20:13:00,58.6,46.6,30.08,NW,315,9.8,15.2,64,0.00,,,0.00,meteobridge,2013-05-27 01:13:00,
2013-05-26 20:19:00,58.6,46.6,30.08,NW,315,14.5,14.5,64,0.00,,,0.00,meteobridge,2013-05-27 01:19:00,
2013-05-26 20:25:00,58.6,46.6,30.08,NW,315,7.6,13.0,64,0.00,,,0.00,meteobridge,2013-05-27 01:25:00,
2013-05-26 20:30:00,58.6,46.6,30.08,NW,315,10.7,10.7,64,0.00,,,0.00,meteobridge,2013-05-27 01:30:00,
2013-05-26 20:36:00,58.5,46.4,30.09,NNW,338,9.2,9.2,64,0.00,,,0.00,meteobridge,2013-05-27 01:36:00,
2013-05-26 20:42:00,58.5,46.8,30.08,NW,315,9.8,13.0,65,0.00,,,0.00,meteobridge,2013-05-27 01:42:00,
2013-05-26 20:47:00,58.5,46.8,30.08,NW,315,10.7,12.1,65,0.00,,,0.00,meteobridge,2013-05-27 01:47:00,
2013-05-26 20:53:00,58.5,46.8,30.08,NW,315,14.5,14.5,65,0.00,,,0.00,meteobridge,2013-05-27 01:53:00,
2013-05-26 20:58:00,58.5,47.1,30.08,North,0,13.0,13.0,66,0.00,,,0.00,meteobridge,2013-05-27 01:58:00,
2013-05-26 21:04:00,58.5,47.1,30.08,NW,315,9.2,10.7,66,0.00,,,0.00,meteobridge,2013-05-27 02:04:00,
2013-05-26 21:10:00,58.5,47.1,30.08,NW,315,9.2,9.2,66,0.00,,,0.00,meteobridge,2013-05-27 02:10:00,
2013-05-26 21:15:00,58.5,47.1,30.08,NW,315,9.8,9.8,66,0.00,,,0.00,meteobridge,2013-05-27 02:15:00,
2013-05-26 21:21:00,58.5,47.1,30.07,NNW,338,11.4,14.5,66,0.00,,,0.00,meteobridge,2013-05-27 02:21:00,
2013-05-26 21:27:00,58.5,47.5,30.07,West,270,9.2,9.8,67,0.00,,,0.00,meteobridge,2013-05-27 02:27:00,
2013-05-26 21:32:00,58.5,47.1,30.07,NW,315,14.5,15.9,66,0.00,,,0.00,meteobridge,2013-05-27 02:32:00,
2013-05-26 21:38:00,58.5,47.1,30.07,NW,315,9.2,12.1,66,0.00,,,0.00,meteobridge,2013-05-27 02:38:00,
2013-05-26 21:44:00,58.5,47.1,30.07,NW,315,6.9,12.1,66,0.00,,,0.00,meteobridge,2013-05-27 02:44:00,
2013-05-26 21:49:00,58.5,47.1,30.07,NW,315,7.6,9.8,66,0.00,,,0.00,meteobridge,2013-05-27 02:49:00,
2013-05-26 21:55:00,58.5,47.1,30.07,NW,315,7.6,10.7,66,0.00,,,0.00,meteobridge,2013-05-27 02:55:00,
2013-05-26 22:00:00,58.3,46.9,30.07,NW,315,6.9,9.2,66,0.00,,,0.00,meteobridge,2013-05-27 03:00:00,
2013-05-26 22:06:00,58.3,47.3,30.07,West,270,6.0,9.2,67,0.00,,,0.00,meteobridge,2013-05-27 03:06:00,
2013-05-26 22:12:00,58.1,47.1,30.06,NW,315,5.4,7.6,67,0.00,,,0.00,meteobridge,2013-05-27 03:12:00,
2013-05-26 22:17:00,58.1,47.1,30.06,NW,315,4.5,6.9,67,0.00,,,0.00,meteobridge,2013-05-27 03:17:00,
2013-05-26 22:23:00,58.1,47.1,30.06,NW,315,8.3,8.3,67,0.00,,,0.00,meteobridge,2013-05-27 03:23:00,
2013-05-26 22:29:00,57.9,46.9,30.06,NW,315,9.2,9.2,67,0.00,,,0.00,meteobridge,2013-05-27 03:29:00,
2013-05-26 22:34:00,58.1,47.1,30.06,NW,315,7.6,11.4,67,0.00,,,0.00,meteobridge,2013-05-27 03:34:00,
2013-05-26 22:40:00,58.1,47.1,30.05,West,270,9.2,9.2,67,0.00,,,0.00,meteobridge,2013-05-27 03:40:00,
2013-05-26 22:46:00,58.1,46.8,30.06,West,270,9.8,10.7,66,0.00,,,0.00,meteobridge,2013-05-27 03:46:00,
2013-05-26 22:51:00,58.3,46.9,30.06,West,270,9.8,9.8,66,0.00,,,0.00,meteobridge,2013-05-27 03:51:00,
2013-05-26 22:57:00,58.3,46.9,30.06,West,270,9.8,9.8,66,0.00,,,0.00,meteobridge,2013-05-27 03:57:00,
2013-05-26 23:01:00,58.3,46.6,30.06,NW,315,10.7,10.7,65,0.00,,,0.00,meteobridge,2013-05-27 04:01:00,
2013-05-26 23:03:00,58.3,46.6,30.05,NW,315,10.7,10.7,65,0.00,,,0.00,meteobridge,2013-05-27 04:03:00,
2013-05-26 23:05:00,58.3,46.6,30.05,NW,315,10.7,10.7,65,0.00,,,0.00,meteobridge,2013-05-27 04:05:00,
2013-05-26 23:08:00,58.5,46.8,30.04,NW,315,12.1,13.6,65,0.00,,,0.00,meteobridge,2013-05-27 04:08:00,
2013-05-26 23:14:00,58.6,46.9,30.03,WNW,293,10.7,15.2,65,0.00,,,0.00,meteobridge,2013-05-27 04:14:00,
2013-05-26 23:19:00,58.6,46.9,30.02,West,270,9.8,13.6,65,0.00,,,0.00,meteobridge,2013-05-27 04:19:00,
2013-05-26 23:25:00,58.6,46.9,30.01,West,270,13.6,19.0,65,0.00,,,0.00,meteobridge,2013-05-27 04:25:00,
2013-05-26 23:31:00,58.6,46.9,30.00,NNW,338,18.3,18.3,65,0.00,,,0.00,meteobridge,2013-05-27 04:31:00,
2013-05-26 23:36:00,58.6,46.9,30.01,NW,315,15.9,21.3,65,0.00,,,0.00,meteobridge,2013-05-27 04:36:00,
2013-05-26 23:42:00,58.6,46.9,30.01,NW,315,15.2,19.0,65,0.00,,,0.00,meteobridge,2013-05-27 04:42:00,
2013-05-26 23:48:00,58.6,46.9,30.01,NW,315,10.7,12.1,65,0.00,,,0.00,meteobridge,2013-05-27 04:48:00,
2013-05-26 23:53:00,58.5,46.8,30.00,NW,315,14.5,16.8,65,0.00,,,0.00,meteobridge,2013-05-27 04:53:00,
2013-05-26 23:59:00,58.3,46.9,30.00,WNW,293,18.3,18.3,66,0.00,,,0.00,meteobridge,2013-05-27 04:59:00,